createdAt,value
2023-10-06T00:02:20.629Z,3.00
2023-10-06T00:04:47.192Z,3.00
2023-10-06T00:07:15.766Z,3.03
2023-10-06T00:09:44.823Z,2.92
2023-10-06T00:12:14.339Z,2.80
2023-10-06T00:14:41.818Z,3.55
2023-10-06T00:17:12.753Z,2.83
2023-10-06T00:19:40.366Z,3.00
2023-10-06T00:22:19.421Z,3.00
2023-10-06T00:24:56.316Z,3.30
2023-10-06T00:27:26.017Z,2.72
2023-10-06T00:29:55.782Z,3.38
2023-10-06T00:32:23.252Z,2.90
2023-10-06T00:34:50.694Z,3.50
2023-10-06T00:37:18.059Z,3.20
2023-10-06T00:39:45.257Z,3.60
2023-10-06T00:42:15.880Z,3.63
2023-10-06T00:44:46.001Z,3.42
2023-10-06T00:47:14.340Z,3.25
2023-10-06T00:49:41.855Z,3.50
2023-10-06T00:52:09.106Z,3.75
2023-10-06T00:54:35.704Z,3.47
2023-10-06T00:57:09.792Z,3.72
2023-10-06T00:59:37.177Z,4.10
2023-10-06T01:02:10.025Z,4.23
2023-10-06T01:04:47.084Z,4.03
2023-10-06T01:07:14.880Z,4.43
2023-10-06T01:10:00.555Z,4.57
2023-10-06T01:12:30.606Z,4.88
2023-10-06T01:15:16.743Z,4.70
2023-10-06T01:17:43.379Z,4.57
2023-10-06T01:20:11.847Z,5.10
2023-10-06T01:22:45.551Z,4.80
2023-10-06T01:25:22.108Z,4.90
2023-10-06T01:27:51.385Z,5.13
2023-10-06T01:30:19.360Z,4.88
2023-10-06T01:32:50.234Z,5.07
2023-10-06T01:35:16.731Z,4.90
2023-10-06T01:37:44.634Z,5.45
2023-10-06T01:40:30.542Z,5.40
2023-10-06T01:42:57.611Z,5.18
2023-10-06T01:45:24.191Z,5.78
2023-10-06T01:47:57.362Z,5.47
2023-10-06T01:50:28.340Z,6.00
2023-10-06T01:52:57.075Z,5.33
2023-10-06T01:55:25.300Z,5.70
2023-10-06T01:57:59.226Z,5.18
2023-10-06T02:00:32.828Z,5.72
2023-10-06T02:02:59.864Z,5.22
2023-10-06T02:05:26.464Z,5.53
2023-10-06T02:07:53.139Z,5.88
2023-10-06T02:10:19.687Z,5.78
2023-10-06T02:12:46.824Z,5.68
2023-10-06T02:15:13.354Z,5.93
2023-10-06T02:17:41.995Z,6.63
2023-10-06T02:20:31.435Z,6.07
2023-10-06T02:23:01.927Z,5.97
2023-10-06T02:25:29.107Z,5.90
2023-10-06T02:27:57.634Z,6.20
2023-10-06T02:30:42.719Z,6.07
2023-10-06T02:33:09.180Z,6.13
2023-10-06T02:35:35.763Z,6.28
2023-10-06T02:38:06.960Z,6.22
2023-10-06T02:40:46.176Z,6.30
2023-10-06T02:43:14.541Z,6.47
2023-10-06T02:45:42.055Z,6.22
2023-10-06T02:48:24.126Z,6.45
2023-10-06T02:50:55.956Z,5.82
2023-10-06T02:53:24.711Z,6.07
2023-10-06T02:55:56.966Z,5.97
2023-10-06T02:58:31.911Z,6.60
2023-10-06T03:00:59.116Z,6.28
2023-10-06T03:03:29.358Z,6.15
2023-10-06T03:05:57.180Z,5.60
2023-10-06T03:08:29.468Z,5.80
2023-10-06T03:10:56.331Z,5.95
2023-10-06T03:13:34.063Z,6.25
2023-10-06T03:16:12.975Z,6.10
2023-10-06T03:18:40.614Z,5.97
2023-10-06T03:21:13.237Z,5.93
2023-10-06T03:23:40.130Z,6.30
2023-10-06T03:26:20.441Z,6.22
2023-10-06T03:28:50.984Z,6.22
2023-10-06T03:31:24.323Z,6.97
2023-10-06T03:33:55.918Z,6.23
2023-10-06T03:36:31.274Z,6.25
2023-10-06T03:38:58.194Z,6.13
2023-10-06T03:41:37.510Z,6.25
2023-10-06T03:44:05.693Z,6.55
2023-10-06T03:46:39.404Z,6.77
2023-10-06T03:49:06.476Z,6.63
2023-10-06T03:51:37.284Z,6.97
2023-10-06T03:54:05.628Z,6.90
2023-10-06T03:56:33.245Z,6.63
2023-10-06T03:59:01.199Z,6.60
2023-10-06T04:01:28.007Z,6.35
2023-10-06T04:04:00.776Z,6.60
2023-10-06T04:06:28.324Z,6.60
2023-10-06T04:08:57.994Z,6.70
2023-10-06T04:11:24.402Z,6.80
2023-10-06T04:13:51.836Z,6.82
2023-10-06T04:16:18.330Z,6.18
2023-10-06T04:18:49.452Z,6.13
2023-10-06T04:21:19.541Z,6.90
2023-10-06T04:23:46.072Z,6.13
2023-10-06T04:26:17.298Z,7.03
2023-10-06T04:28:48.457Z,6.93
2023-10-06T04:31:16.816Z,7.22
2023-10-06T04:33:44.690Z,6.78
2023-10-06T04:36:12.255Z,6.50
2023-10-06T04:38:40.995Z,6.63
2023-10-06T04:41:09.654Z,6.47
2023-10-06T04:43:37.811Z,6.40
2023-10-06T04:46:07.144Z,6.53
2023-10-06T04:48:36.956Z,5.70
2023-10-06T04:51:04.894Z,6.00
2023-10-06T04:53:36.542Z,5.88
2023-10-06T04:56:07.585Z,6.18
2023-10-06T04:58:37.624Z,6.15
2023-10-06T05:01:04.344Z,6.20
2023-10-06T05:03:47.062Z,6.43
2023-10-06T05:06:16.845Z,6.05
2023-10-06T05:08:48.114Z,6.10
2023-10-06T05:11:24.567Z,6.25
2023-10-06T05:13:53.863Z,5.83
2023-10-06T05:16:21.064Z,5.82
2023-10-06T05:18:48.709Z,6.10
2023-10-06T05:21:16.346Z,5.97
2023-10-06T05:23:44.050Z,5.80
2023-10-06T05:26:12.091Z,5.90
2023-10-06T05:28:38.788Z,6.18
2023-10-06T05:31:08.607Z,6.60
2023-10-06T05:33:35.585Z,6.25
2023-10-06T05:36:12.561Z,6.32
2023-10-06T05:38:39.469Z,5.50
2023-10-06T05:41:16.390Z,6.13
2023-10-06T05:43:44.497Z,6.07
2023-10-06T05:46:12.512Z,5.85
2023-10-06T05:48:39.663Z,6.43
2023-10-06T05:51:06.834Z,6.60
2023-10-06T05:53:39.800Z,6.30
2023-10-06T05:56:08.833Z,6.72
2023-10-06T05:58:38.321Z,5.93
2023-10-06T06:01:07.910Z,6.30
2023-10-06T06:03:34.881Z,6.10
2023-10-06T06:06:09.491Z,6.00
2023-10-06T06:08:36.636Z,6.38
2023-10-06T06:11:03.368Z,6.20
2023-10-06T06:13:31.232Z,6.20
2023-10-06T06:15:57.683Z,5.97
2023-10-06T06:18:28.519Z,6.17
2023-10-06T06:20:55.436Z,6.18
2023-10-06T06:23:21.917Z,6.32
2023-10-06T06:25:48.378Z,6.10
2023-10-06T06:28:15.581Z,6.30
2023-10-06T06:30:42.138Z,6.23
2023-10-06T06:33:09.841Z,6.70
2023-10-06T06:35:37.340Z,6.28
2023-10-06T06:38:06.239Z,6.57
2023-10-06T06:40:34.141Z,6.18
2023-10-06T06:43:01.380Z,6.30
2023-10-06T06:45:29.989Z,6.07
2023-10-06T06:47:56.834Z,6.30
2023-10-06T06:50:23.509Z,6.30
2023-10-06T06:52:52.311Z,5.90
2023-10-06T06:55:21.343Z,6.70
2023-10-06T06:57:56.845Z,5.82
2023-10-06T07:00:24.832Z,6.15
2023-10-06T07:02:52.919Z,6.80
2023-10-06T07:05:23.944Z,6.25
2023-10-06T07:07:54.289Z,6.33
2023-10-06T07:10:23.772Z,6.47
2023-10-06T07:12:51.558Z,6.38
2023-10-06T07:15:22.726Z,6.80
2023-10-06T07:17:55.130Z,6.25
2023-10-06T07:20:28.486Z,6.57
2023-10-06T07:22:57.065Z,6.35
2023-10-06T07:25:25.424Z,6.50
2023-10-06T07:27:56.585Z,6.22
2023-10-06T07:30:25.709Z,6.40
2023-10-06T07:32:53.983Z,5.93
2023-10-06T07:35:31.983Z,6.20
2023-10-06T07:37:59.433Z,5.85
2023-10-06T07:40:28.644Z,6.60
2023-10-06T07:42:58.891Z,6.25
2023-10-06T07:45:28.056Z,5.80
2023-10-06T07:47:55.913Z,5.70
2023-10-06T07:50:22.518Z,6.00
2023-10-06T07:52:49.559Z,6.03
2023-10-06T07:55:17.080Z,5.90
2023-10-06T07:57:49.076Z,6.07
2023-10-06T08:00:30.971Z,6.50
2023-10-06T08:03:01.937Z,6.53
2023-10-06T08:05:31.123Z,6.80
2023-10-06T08:08:01.889Z,6.57
2023-10-06T08:10:31.615Z,6.57
2023-10-06T08:13:01.987Z,7.13
2023-10-06T08:15:29.189Z,7.40
2023-10-06T08:17:56.974Z,6.32
2023-10-06T08:20:26.083Z,6.22
2023-10-06T08:22:53.420Z,6.63
2023-10-06T08:25:20.948Z,7.30
2023-10-06T08:27:50.183Z,6.82
2023-10-06T08:30:18.118Z,6.93
2023-10-06T08:32:46.286Z,7.20
2023-10-06T08:35:16.706Z,6.73
2023-10-06T08:37:44.441Z,6.85
2023-10-06T08:40:18.193Z,6.78
2023-10-06T08:42:49.897Z,6.60
2023-10-06T08:45:28.643Z,6.78
2023-10-06T08:48:02.347Z,7.17
2023-10-06T08:50:34.222Z,6.47
2023-10-06T08:53:03.041Z,6.78
2023-10-06T08:55:30.277Z,6.20
2023-10-06T08:58:04.150Z,6.20
2023-10-06T09:00:34.597Z,5.90
2023-10-06T09:03:10.988Z,5.95
2023-10-06T09:05:42.124Z,5.80
2023-10-06T09:08:13.039Z,5.65
2023-10-06T09:10:42.230Z,5.68
2023-10-06T09:13:13.183Z,5.20
2023-10-06T09:15:41.812Z,5.30
2023-10-06T09:18:21.805Z,5.05
2023-10-06T09:20:50.033Z,5.45
2023-10-06T09:23:32.761Z,5.22
2023-10-06T09:26:01.623Z,4.50
2023-10-06T09:28:29.810Z,4.95
2023-10-06T09:30:58.844Z,5.00
2023-10-06T09:33:28.094Z,5.10
2023-10-06T09:36:12.413Z,5.10
2023-10-06T09:38:40.668Z,4.77
2023-10-06T09:41:09.040Z,4.80
2023-10-06T09:43:39.200Z,5.20
2023-10-06T09:46:15.027Z,4.63
2023-10-06T09:48:44.213Z,5.00
2023-10-06T09:51:12.163Z,5.20
2023-10-06T09:53:40.122Z,5.25
2023-10-06T09:56:12.700Z,5.20
2023-10-06T09:58:46.116Z,4.90
2023-10-06T10:01:15.576Z,5.22
2023-10-06T10:03:43.114Z,5.13
2023-10-06T10:06:11.018Z,4.90
2023-10-06T10:08:42.368Z,4.97
2023-10-06T10:11:15.674Z,4.68
2023-10-06T10:13:50.356Z,4.65
2023-10-06T10:16:26.909Z,4.50
2023-10-06T10:19:04.817Z,5.00
2023-10-06T10:21:35.579Z,4.30
2023-10-06T10:24:49.434Z,4.30
2023-10-06T10:26:55.617Z,4.38
2023-10-06T10:29:25.368Z,4.20
2023-10-06T10:32:01.438Z,4.30
2023-10-06T10:34:35.162Z,4.10
2023-10-06T10:37:07.113Z,3.72
2023-10-06T10:39:54.196Z,3.90
2023-10-06T10:42:38.425Z,4.37
2023-10-06T10:45:31.494Z,3.75
2023-10-06T10:48:00.345Z,4.40
2023-10-06T10:50:28.343Z,4.10
2023-10-06T10:52:54.963Z,4.60
2023-10-06T10:55:27.803Z,4.37
2023-10-06T10:57:54.283Z,4.43
2023-10-06T11:00:21.709Z,4.57
2023-10-06T11:02:51.003Z,4.38
2023-10-06T11:05:22.731Z,4.45
2023-10-06T11:08:05.009Z,4.27
2023-10-06T11:10:32.647Z,4.47
2023-10-06T11:13:21.102Z,4.20
2023-10-06T11:15:50.253Z,4.13
2023-10-06T11:18:19.364Z,4.18
2023-10-06T11:20:47.137Z,3.80
2023-10-06T11:23:13.649Z,3.88
2023-10-06T11:25:49.618Z,3.92
2023-10-06T11:28:16.614Z,3.40
2023-10-06T11:30:43.928Z,3.97
2023-10-06T11:33:12.868Z,3.57
2023-10-06T11:35:41.739Z,4.00
2023-10-06T11:38:14.632Z,3.92
2023-10-06T11:40:42.069Z,3.55
2023-10-06T11:43:10.671Z,3.67
2023-10-06T11:45:38.057Z,3.53
2023-10-06T11:48:04.815Z,3.33
2023-10-06T11:50:34.533Z,3.70
2023-10-06T11:53:01.030Z,3.30
2023-10-06T11:55:37.153Z,3.10
2023-10-06T11:58:06.337Z,3.10
2023-10-06T12:00:38.324Z,3.30
2023-10-06T12:03:07.597Z,3.08
2023-10-06T12:05:34.750Z,2.95
2023-10-06T12:08:05.669Z,2.97
2023-10-06T12:10:33.890Z,3.43
2023-10-06T12:13:01.300Z,3.05
2023-10-06T12:15:30.842Z,3.40
2023-10-06T12:17:57.905Z,3.20
2023-10-06T12:20:25.589Z,3.40
2023-10-06T12:22:53.015Z,3.30
2023-10-06T12:25:24.162Z,3.40
2023-10-06T12:27:51.645Z,3.55
2023-10-06T12:30:19.577Z,3.45
2023-10-06T12:32:48.888Z,3.58
2023-10-06T12:35:22.355Z,3.67
2023-10-06T12:37:50.011Z,3.90
2023-10-06T12:40:17.751Z,3.22
2023-10-06T12:42:45.039Z,3.53
2023-10-06T12:45:14.925Z,3.30
2023-10-06T12:47:41.784Z,2.70
2023-10-06T12:50:09.659Z,3.35
2023-10-06T12:52:38.064Z,3.03
2023-10-06T12:55:14.243Z,3.20
2023-10-06T12:57:41.881Z,3.33
2023-10-06T13:00:10.216Z,3.10
2023-10-06T13:02:38.068Z,3.28
2023-10-06T13:05:10.322Z,3.90
2023-10-06T13:07:37.246Z,3.05
2023-10-06T13:10:07.859Z,3.47
2023-10-06T13:12:39.737Z,4.00
2023-10-06T13:15:19.633Z,3.60
2023-10-06T13:17:47.328Z,3.90
2023-10-06T13:20:14.881Z,3.75
2023-10-06T13:22:42.740Z,3.60
2023-10-06T13:25:11.727Z,3.30
2023-10-06T13:27:40.609Z,3.70
2023-10-06T13:30:14.172Z,3.33
2023-10-06T13:32:48.574Z,3.50
2023-10-06T13:35:20.262Z,3.47
2023-10-06T13:37:49.789Z,3.33
2023-10-06T13:40:18.360Z,3.17
2023-10-06T13:42:48.004Z,3.03
2023-10-06T13:45:19.407Z,3.38
2023-10-06T13:47:48.486Z,3.30
2023-10-06T13:50:19.470Z,3.07
2023-10-06T13:52:48.342Z,2.85
2023-10-06T13:55:15.138Z,2.60
2023-10-06T13:57:42.841Z,2.78
2023-10-06T14:00:15.114Z,2.63
2023-10-06T14:02:42.789Z,2.90
2023-10-06T14:05:10.625Z,2.72
2023-10-06T14:07:38.533Z,3.15
2023-10-06T14:10:13.659Z,3.17
2023-10-06T14:12:43.944Z,2.90
2023-10-06T14:15:31.367Z,3.20
2023-10-06T14:17:59.732Z,3.05
2023-10-06T14:20:30.838Z,3.10
2023-10-06T14:22:57.827Z,2.90
2023-10-06T14:25:27.922Z,3.00
2023-10-06T14:27:55.976Z,3.03
2023-10-06T14:30:26.519Z,2.60
2023-10-06T14:33:09.039Z,3.42
2023-10-06T14:35:58.711Z,3.08
2023-10-06T14:38:44.316Z,2.92
2023-10-06T14:41:30.876Z,3.23
2023-10-06T14:44:20.852Z,3.15
2023-10-06T14:46:51.162Z,2.63
2023-10-06T14:49:29.186Z,2.90
2023-10-06T14:51:57.461Z,3.08
2023-10-06T14:54:32.040Z,2.57
2023-10-06T14:57:00.199Z,3.10
2023-10-06T14:59:32.415Z,2.50
2023-10-06T15:02:04.714Z,2.70
2023-10-06T15:04:31.395Z,2.50
2023-10-06T15:06:57.948Z,2.63
2023-10-06T15:09:24.387Z,2.50
2023-10-06T15:11:53.686Z,2.40
2023-10-06T15:14:26.218Z,2.30
2023-10-06T15:16:54.136Z,2.10
2023-10-06T15:19:21.321Z,2.50
2023-10-06T15:21:47.845Z,2.28
2023-10-06T15:24:15.640Z,1.92
2023-10-06T15:26:49.446Z,2.72
2023-10-06T15:29:20.872Z,2.40
2023-10-06T15:31:51.330Z,2.20
2023-10-06T15:34:18.850Z,2.15
2023-10-06T15:36:45.731Z,2.20
2023-10-06T15:39:18.946Z,2.10
2023-10-06T15:41:47.066Z,2.35
2023-10-06T15:44:14.735Z,2.30
2023-10-06T15:46:42.125Z,2.17
2023-10-06T15:49:13.647Z,2.30
2023-10-06T15:51:43.355Z,2.15
2023-10-06T15:54:10.693Z,2.60
2023-10-06T15:56:39.819Z,2.60
2023-10-06T15:59:15.428Z,2.28
2023-10-06T16:01:44.305Z,2.28
2023-10-06T16:04:13.504Z,2.20
2023-10-06T16:06:42.710Z,2.35
2023-10-06T16:09:10.663Z,2.50
2023-10-06T16:11:40.830Z,2.35
2023-10-06T16:14:07.459Z,2.40
2023-10-06T16:16:36.633Z,2.45
2023-10-06T16:19:07.043Z,2.58
2023-10-06T16:21:34.169Z,2.30
2023-10-06T16:24:02.649Z,2.50
2023-10-06T16:26:31.301Z,2.55
2023-10-06T16:28:59.496Z,2.25
2023-10-06T16:31:27.025Z,2.50
2023-10-06T16:33:54.988Z,1.83
2023-10-06T16:36:22.781Z,2.20
2023-10-06T16:38:52.330Z,2.17
2023-10-06T16:41:22.292Z,2.10
2023-10-06T16:43:56.837Z,2.30
2023-10-06T16:46:23.894Z,2.10
2023-10-06T16:48:50.444Z,2.10
2023-10-06T16:51:19.011Z,2.38
2023-10-06T16:53:48.962Z,1.80
2023-10-06T16:56:15.684Z,2.00
2023-10-06T16:58:42.513Z,2.37
2023-10-06T17:01:09.499Z,2.30
2023-10-06T17:03:36.659Z,2.42
2023-10-06T17:06:05.177Z,2.65
2023-10-06T17:08:32.009Z,2.50
2023-10-06T17:11:15.826Z,2.27
2023-10-06T17:13:43.210Z,2.38
2023-10-06T17:16:14.224Z,2.38
2023-10-06T17:18:42.681Z,2.40
2023-10-06T17:21:12.630Z,2.30
2023-10-06T17:23:39.127Z,2.37
2023-10-06T17:26:06.575Z,2.30
2023-10-06T17:28:34.679Z,2.28
2023-10-06T17:31:02.256Z,2.50
2023-10-06T17:33:30.001Z,2.20
2023-10-06T17:35:57.850Z,2.53
2023-10-06T17:38:24.515Z,2.30
2023-10-06T17:40:51.069Z,2.90
2023-10-06T17:43:18.322Z,2.35
2023-10-06T17:45:45.637Z,2.90
2023-10-06T17:48:15.122Z,2.50
2023-10-06T17:50:47.059Z,2.53
2023-10-06T17:53:13.462Z,2.70
2023-10-06T17:55:39.912Z,2.53
2023-10-06T17:58:06.360Z,2.72
2023-10-06T18:00:32.753Z,2.43
2023-10-06T18:02:59.668Z,2.33
2023-10-06T18:05:26.931Z,2.60
2023-10-06T18:07:55.621Z,2.75
2023-10-06T18:10:24.162Z,2.90
2023-10-06T18:12:50.637Z,2.63
2023-10-06T18:15:17.068Z,2.70
2023-10-06T18:17:43.571Z,2.90
2023-10-06T18:20:10.966Z,2.53
2023-10-06T18:22:38.210Z,2.88
2023-10-06T18:25:07.129Z,2.80
2023-10-06T18:27:34.076Z,3.00
2023-10-06T18:30:00.624Z,2.88
2023-10-06T18:32:27.151Z,3.00
2023-10-06T18:34:54.077Z,2.38
2023-10-06T18:37:20.592Z,2.87
2023-10-06T18:39:47.665Z,2.85
2023-10-06T18:42:14.551Z,2.75
2023-10-06T18:44:41.068Z,2.88
2023-10-06T18:47:07.602Z,2.90
2023-10-06T18:49:34.152Z,2.90
2023-10-06T18:52:00.894Z,2.90
2023-10-06T18:54:27.350Z,3.03
2023-10-06T18:56:53.983Z,2.55
2023-10-06T18:59:20.412Z,3.00
2023-10-06T19:01:47.041Z,2.70
2023-10-06T19:04:14.587Z,3.00
2023-10-06T19:06:42.228Z,3.10
2023-10-06T19:09:11.839Z,3.35
2023-10-06T19:11:38.849Z,2.78
2023-10-06T19:14:06.071Z,3.03
2023-10-06T19:16:33.077Z,3.15
2023-10-06T19:18:59.774Z,3.10
2023-10-06T19:21:26.312Z,3.25
2023-10-06T19:23:52.927Z,3.05
2023-10-06T19:26:23.249Z,2.80
2023-10-06T19:28:49.790Z,2.75
2023-10-06T19:31:17.294Z,3.53
2023-10-06T19:33:48.479Z,3.60
2023-10-06T19:36:15.408Z,3.28
2023-10-06T19:38:42.698Z,3.87
2023-10-06T19:41:15.321Z,3.22
2023-10-06T19:43:45.442Z,3.38
2023-10-06T19:46:12.494Z,3.15
2023-10-06T19:48:51.597Z,3.25
2023-10-06T19:51:18.711Z,2.93
2023-10-06T19:53:46.068Z,3.35
2023-10-06T19:56:13.161Z,3.38
2023-10-06T19:58:42.634Z,3.42
2023-10-06T20:01:12.641Z,3.45
2023-10-06T20:03:39.359Z,3.43
2023-10-06T20:06:06.093Z,3.70
2023-10-06T20:08:33.502Z,3.42
2023-10-06T20:11:01.618Z,3.60
2023-10-06T20:13:30.030Z,3.53
2023-10-06T20:15:57.527Z,3.40
2023-10-06T20:18:24.181Z,3.70
2023-10-06T20:20:53.259Z,3.53
2023-10-06T20:23:20.681Z,3.67
2023-10-06T20:25:47.340Z,3.70
2023-10-06T20:28:15.439Z,3.20
2023-10-06T20:30:42.237Z,3.53
2023-10-06T20:33:08.795Z,3.65
2023-10-06T20:35:35.778Z,3.92
2023-10-06T20:38:02.796Z,3.55
2023-10-06T20:40:30.070Z,3.40
2023-10-06T20:42:58.700Z,3.70
2023-10-06T20:45:29.553Z,3.92
2023-10-06T20:47:56.687Z,4.13
2023-10-06T20:50:24.416Z,4.60
2023-10-06T20:52:52.831Z,4.30
2023-10-06T20:55:20.778Z,3.90
2023-10-06T20:57:49.330Z,4.25
2023-10-06T21:00:17.871Z,4.10
2023-10-06T21:02:44.831Z,4.22
2023-10-06T21:05:12.786Z,3.70
2023-10-06T21:07:40.346Z,4.13
2023-10-06T21:10:08.641Z,4.22
2023-10-06T21:12:35.916Z,3.85
2023-10-06T21:15:03.669Z,4.13
2023-10-06T21:17:31.036Z,4.07
2023-10-06T21:19:57.774Z,4.30
2023-10-06T21:22:24.532Z,4.07
2023-10-06T21:24:51.087Z,4.20
2023-10-06T21:27:17.565Z,3.83
2023-10-06T21:29:44.066Z,3.83
2023-10-06T21:32:10.513Z,4.45
2023-10-06T21:34:36.967Z,3.95
2023-10-06T21:37:03.544Z,4.43
2023-10-06T21:39:30.648Z,4.20
2023-10-06T21:41:57.243Z,3.90
2023-10-06T21:44:23.733Z,4.30
2023-10-06T21:46:50.331Z,4.50
2023-10-06T21:49:17.124Z,4.18
2023-10-06T21:51:44.343Z,4.40
2023-10-06T21:54:11.937Z,4.13
2023-10-06T21:56:38.639Z,4.03
2023-10-06T21:59:05.206Z,4.30
2023-10-06T22:01:31.813Z,4.25
2023-10-06T22:03:58.350Z,4.10
2023-10-06T22:06:24.921Z,4.33
2023-10-06T22:08:52.395Z,4.18
2023-10-06T22:11:19.047Z,4.05
2023-10-06T22:13:46.980Z,3.92
2023-10-06T22:16:13.904Z,4.30
2023-10-06T22:18:41.438Z,4.20
2023-10-06T22:21:15.583Z,3.90
2023-10-06T22:23:43.195Z,3.97
2023-10-06T22:26:09.866Z,3.88
2023-10-06T22:28:36.783Z,4.00
2023-10-06T22:31:05.380Z,3.87
2023-10-06T22:33:32.779Z,3.80
2023-10-06T22:35:59.744Z,4.03
2023-10-06T22:38:26.492Z,3.70
2023-10-06T22:40:53.511Z,4.00
2023-10-06T22:43:20.292Z,3.90
2023-10-06T22:45:46.894Z,3.70
2023-10-06T22:48:13.469Z,3.90
2023-10-06T22:50:41.028Z,3.78
2023-10-06T22:53:08.129Z,3.67
2023-10-06T22:55:36.920Z,3.70
2023-10-06T22:58:03.818Z,3.75
2023-10-06T23:00:30.767Z,3.70
2023-10-06T23:02:57.920Z,3.42
2023-10-06T23:05:25.562Z,3.65
2023-10-06T23:07:52.806Z,3.67
2023-10-06T23:10:23.886Z,3.50
2023-10-06T23:12:51.875Z,3.75
2023-10-06T23:15:21.898Z,3.45
2023-10-06T23:17:50.353Z,3.92
2023-10-06T23:20:23.177Z,3.50
2023-10-06T23:22:54.671Z,3.63
2023-10-06T23:25:23.837Z,3.03
2023-10-06T23:27:54.070Z,3.83
2023-10-06T23:30:21.199Z,4.05
2023-10-06T23:32:50.391Z,4.03
2023-10-06T23:35:20.731Z,3.70
2023-10-06T23:37:47.942Z,4.00
2023-10-06T23:40:23.867Z,3.70
2023-10-06T23:42:56.333Z,3.90
2023-10-06T23:45:30.539Z,3.80
2023-10-06T23:47:58.680Z,4.10
2023-10-06T23:50:29.797Z,3.95
2023-10-06T23:53:00.820Z,3.60
2023-10-06T23:55:28.814Z,3.83
2023-10-06T23:57:55.589Z,4.00
